createdAt,value
2022-10-05T00:00:19.258Z,0.00
2022-10-05T00:01:19.279Z,0.00
2022-10-05T00:02:19.224Z,0.00
2022-10-05T00:03:19.215Z,0.00
2022-10-05T00:04:19.204Z,0.00
2022-10-05T00:05:19.281Z,0.00
2022-10-05T00:06:19.183Z,0.00
2022-10-05T00:07:19.165Z,0.00
2022-10-05T00:08:19.165Z,0.00
2022-10-05T00:09:19.144Z,0.00
2022-10-05T00:10:19.124Z,0.00
2022-10-05T00:11:19.145Z,0.00
2022-10-05T00:12:19.235Z,0.00
2022-10-05T00:13:19.140Z,0.00
2022-10-05T00:14:19.120Z,0.00
2022-10-05T00:15:19.105Z,0.00
2022-10-05T00:16:19.227Z,0.00
2022-10-05T00:17:19.082Z,0.00
2022-10-05T00:18:19.053Z,0.00
2022-10-05T00:19:19.045Z,0.00
2022-10-05T00:20:19.022Z,0.00
2022-10-05T00:21:19.094Z,0.00
2022-10-05T00:22:18.994Z,0.00
2022-10-05T00:23:19.077Z,0.00
2022-10-05T00:24:18.993Z,0.00
2022-10-05T00:25:19.011Z,0.00
2022-10-05T00:26:18.983Z,0.00
2022-10-05T00:27:18.949Z,0.00
2022-10-05T00:28:19.008Z,0.00
2022-10-05T00:29:18.941Z,0.00
2022-10-05T00:30:18.931Z,0.00
2022-10-05T00:31:18.973Z,0.00
2022-10-05T00:32:18.892Z,0.00
2022-10-05T00:33:18.886Z,0.00
2022-10-05T00:34:18.864Z,0.00
2022-10-05T00:35:18.923Z,0.00
2022-10-05T00:36:18.888Z,0.00
2022-10-05T00:37:18.852Z,0.00
2022-10-05T00:38:18.883Z,0.00
2022-10-05T00:39:18.832Z,0.00
2022-10-05T00:40:18.812Z,0.00
2022-10-05T00:41:18.822Z,0.00
2022-10-05T00:42:18.790Z,0.00
2022-10-05T00:43:18.773Z,0.00
2022-10-05T00:44:18.774Z,0.00
2022-10-05T00:45:18.752Z,0.00
2022-10-05T00:46:18.842Z,0.00
2022-10-05T00:47:18.742Z,0.00
2022-10-05T00:48:18.763Z,0.00
2022-10-05T00:49:19.010Z,0.00
2022-10-05T00:50:18.696Z,0.00
2022-10-05T00:51:18.769Z,0.00
2022-10-05T00:52:18.682Z,0.00
2022-10-05T00:53:18.663Z,0.00
2022-10-05T00:54:18.780Z,0.00
2022-10-05T00:55:18.651Z,0.00
2022-10-05T00:56:18.631Z,0.00
2022-10-05T00:57:18.627Z,0.00
2022-10-05T00:58:18.614Z,0.00
2022-10-05T00:59:18.611Z,0.00
2022-10-05T01:00:18.642Z,0.00
2022-10-05T01:01:18.661Z,0.00
2022-10-05T01:02:18.673Z,0.00
2022-10-05T01:03:18.618Z,0.00
2022-10-05T01:04:18.561Z,0.00
2022-10-05T01:05:18.563Z,0.00
2022-10-05T01:06:18.545Z,0.00
2022-10-05T01:07:18.536Z,0.00
2022-10-05T01:08:18.575Z,0.00
2022-10-05T01:09:18.548Z,0.00
2022-10-05T01:10:18.511Z,0.00
2022-10-05T01:11:18.552Z,0.00
2022-10-05T01:12:18.571Z,0.00
2022-10-05T01:13:18.491Z,0.00
2022-10-05T01:14:18.473Z,0.00
2022-10-05T01:15:18.461Z,0.00
2022-10-05T01:16:18.446Z,0.00
2022-10-05T01:17:18.538Z,0.00
2022-10-05T01:18:18.408Z,0.00
2022-10-05T01:19:18.388Z,0.00
2022-10-05T01:20:18.370Z,0.00
2022-10-05T01:21:18.370Z,0.00
2022-10-05T01:22:18.360Z,0.00
2022-10-05T01:23:18.342Z,0.00
2022-10-05T01:24:18.341Z,0.00
2022-10-05T01:25:18.339Z,0.00
2022-10-05T01:26:18.300Z,0.00
2022-10-05T01:27:18.320Z,0.00
2022-10-05T01:28:18.573Z,0.00
2022-10-05T01:29:18.321Z,0.00
2022-10-05T01:30:18.329Z,0.00
2022-10-05T01:31:18.309Z,0.00
2022-10-05T01:32:18.251Z,0.00
2022-10-05T01:33:18.241Z,0.00
2022-10-05T01:34:18.248Z,0.00
2022-10-05T01:35:18.272Z,0.00
2022-10-05T01:36:18.249Z,0.00
2022-10-05T01:37:18.389Z,0.00
2022-10-05T01:38:18.180Z,0.00
2022-10-05T01:39:18.180Z,0.00
2022-10-05T01:40:18.169Z,0.00
2022-10-05T01:41:18.150Z,0.00
2022-10-05T01:42:18.175Z,0.00
2022-10-05T01:43:18.130Z,0.00
2022-10-05T01:44:18.118Z,0.00
2022-10-05T01:45:18.109Z,0.00
2022-10-05T01:46:18.172Z,0.00
2022-10-05T01:47:18.128Z,0.00
2022-10-05T01:48:18.079Z,0.00
2022-10-05T01:49:18.081Z,0.00
2022-10-05T01:50:18.074Z,0.00
2022-10-05T01:51:18.049Z,0.00
2022-10-05T01:52:18.039Z,0.00
2022-10-05T01:53:18.052Z,0.00
2022-10-05T01:54:18.017Z,0.00
2022-10-05T01:55:18.015Z,0.00
2022-10-05T01:56:17.998Z,0.00
2022-10-05T01:57:17.990Z,0.00
2022-10-05T01:58:17.973Z,0.00
2022-10-05T01:59:17.963Z,0.00
2022-10-05T02:00:19.020Z,0.00
2022-10-05T02:01:17.991Z,0.00
2022-10-05T02:02:17.984Z,0.00
2022-10-05T02:03:17.939Z,0.00
2022-10-05T02:04:37.259Z,0.00
2022-10-05T02:05:18.951Z,0.00
2022-10-05T02:06:17.909Z,0.00
2022-10-05T02:07:17.915Z,0.00
2022-10-05T02:08:17.879Z,0.00
2022-10-05T02:09:17.872Z,0.00
2022-10-05T02:10:17.868Z,0.00
2022-10-05T02:11:17.891Z,0.00
2022-10-05T02:12:17.827Z,0.00
2022-10-05T02:13:17.874Z,0.00
2022-10-05T02:14:17.811Z,0.00
2022-10-05T02:15:17.822Z,0.00
2022-10-05T02:16:17.832Z,0.00
2022-10-05T02:17:17.768Z,0.00
2022-10-05T02:18:17.758Z,0.00
2022-10-05T02:19:17.758Z,0.00
2022-10-05T02:20:17.729Z,0.00
2022-10-05T02:21:17.731Z,0.00
2022-10-05T02:22:17.729Z,0.00
2022-10-05T02:23:17.711Z,0.00
2022-10-05T02:24:17.687Z,0.00
2022-10-05T02:25:17.688Z,0.00
2022-10-05T02:26:17.700Z,0.00
2022-10-05T02:27:17.678Z,0.00
2022-10-05T02:28:17.681Z,0.00
2022-10-05T02:29:17.908Z,0.00
2022-10-05T02:30:17.638Z,0.00
2022-10-05T02:31:17.684Z,0.00
2022-10-05T02:32:17.634Z,0.00
2022-10-05T02:33:17.606Z,0.00
2022-10-05T02:34:17.587Z,0.00
2022-10-05T02:35:17.578Z,0.00
2022-10-05T02:36:17.570Z,0.00
2022-10-05T02:37:17.590Z,0.00
2022-10-05T02:38:17.772Z,0.00
2022-10-05T02:39:17.568Z,0.00
2022-10-05T02:40:17.547Z,0.00
2022-10-05T02:41:17.552Z,0.00
2022-10-05T02:42:17.567Z,0.00
2022-10-05T02:43:17.577Z,0.00
2022-10-05T02:44:17.555Z,0.00
2022-10-05T02:45:17.497Z,0.00
2022-10-05T02:46:17.531Z,0.00
2022-10-05T02:47:17.477Z,0.00
2022-10-05T02:48:17.478Z,0.00
2022-10-05T02:49:17.486Z,0.00
2022-10-05T02:50:17.438Z,0.00
2022-10-05T02:51:17.446Z,0.00
2022-10-05T02:52:17.430Z,0.00
2022-10-05T02:53:17.498Z,0.00
2022-10-05T02:54:17.385Z,0.00
2022-10-05T02:55:17.387Z,0.00
2022-10-05T02:56:17.389Z,0.00
2022-10-05T02:57:17.347Z,0.00
2022-10-05T02:58:17.347Z,0.00
2022-10-05T02:59:17.327Z,0.00
2022-10-05T03:00:17.316Z,0.00
2022-10-05T03:01:17.340Z,0.00
2022-10-05T03:02:17.483Z,0.00
2022-10-05T03:03:17.297Z,0.00
2022-10-05T03:04:17.276Z,0.00
2022-10-05T03:05:17.276Z,0.00
2022-10-05T03:06:17.281Z,0.00
2022-10-05T03:07:17.248Z,0.00
2022-10-05T03:08:17.256Z,0.00
2022-10-05T03:09:17.251Z,0.00
2022-10-05T03:10:17.207Z,0.00
2022-10-05T03:11:17.197Z,0.00
2022-10-05T03:12:17.220Z,0.00
2022-10-05T03:13:17.196Z,0.00
2022-10-05T03:14:17.216Z,0.00
2022-10-05T03:15:17.186Z,0.00
2022-10-05T03:16:17.462Z,0.00
2022-10-05T03:17:17.155Z,0.00
2022-10-05T03:18:17.146Z,0.00
2022-10-05T03:19:17.126Z,0.00
2022-10-05T03:20:17.116Z,0.00
2022-10-05T03:21:17.086Z,0.00
2022-10-05T03:22:17.094Z,0.00
2022-10-05T03:23:17.076Z,0.00
2022-10-05T03:24:17.066Z,0.00
2022-10-05T03:25:17.085Z,0.00
2022-10-05T03:26:17.041Z,0.00
2022-10-05T03:27:17.028Z,0.00
2022-10-05T03:28:17.077Z,0.00
2022-10-05T03:29:17.008Z,0.00
2022-10-05T03:30:16.995Z,0.00
2022-10-05T03:31:17.037Z,0.00
2022-10-05T03:32:17.028Z,0.00
2022-10-05T03:33:16.993Z,0.00
2022-10-05T03:34:16.978Z,0.00
2022-10-05T03:35:16.992Z,0.00
2022-10-05T03:36:16.964Z,0.00
2022-10-05T03:37:16.975Z,0.00
2022-10-05T03:38:16.943Z,0.00
2022-10-05T03:39:16.915Z,0.00
2022-10-05T03:40:16.911Z,0.00
2022-10-05T03:41:17.032Z,0.00
2022-10-05T03:42:16.885Z,0.00
2022-10-05T03:43:16.889Z,0.00
2022-10-05T03:44:16.855Z,0.00
2022-10-05T03:45:16.835Z,0.00
2022-10-05T03:46:17.096Z,0.00
2022-10-05T03:47:16.804Z,0.00
2022-10-05T03:48:16.868Z,0.00
2022-10-05T03:49:16.807Z,0.00
2022-10-05T03:50:16.788Z,0.00
2022-10-05T03:51:16.772Z,0.00
2022-10-05T03:52:16.766Z,0.00
2022-10-05T03:53:16.773Z,0.00
2022-10-05T03:54:16.784Z,0.00
2022-10-05T03:55:16.777Z,0.00
2022-10-05T03:56:16.768Z,0.00
2022-10-05T03:57:16.774Z,0.00
2022-10-05T03:58:16.794Z,0.00
2022-10-05T03:59:16.786Z,0.00
2022-10-05T04:00:16.785Z,0.00
2022-10-05T04:01:16.753Z,0.00
2022-10-05T04:02:16.760Z,0.00
2022-10-05T04:03:16.674Z,0.00
2022-10-05T04:04:17.145Z,0.00
2022-10-05T04:05:16.640Z,0.00
2022-10-05T04:06:16.636Z,0.00
2022-10-05T04:07:16.625Z,0.00
2022-10-05T04:08:16.615Z,0.00
2022-10-05T04:09:16.584Z,0.00
2022-10-05T04:10:16.583Z,0.00
2022-10-05T04:11:16.568Z,0.00
2022-10-05T04:12:16.574Z,0.00
2022-10-05T04:13:16.535Z,0.00
2022-10-05T04:14:16.552Z,0.00
2022-10-05T04:15:19.049Z,0.00
2022-10-05T04:16:16.563Z,0.00
2022-10-05T04:17:16.484Z,0.00
2022-10-05T04:18:16.497Z,0.00
2022-10-05T04:19:16.517Z,0.00
2022-10-05T04:20:16.454Z,0.00
2022-10-05T04:21:20.099Z,0.00
2022-10-05T04:22:17.464Z,0.00
2022-10-05T04:23:16.423Z,0.00
2022-10-05T04:24:16.462Z,0.00
2022-10-05T04:25:16.534Z,0.00
2022-10-05T04:26:16.403Z,0.00
2022-10-05T04:27:16.382Z,0.00
2022-10-05T04:28:16.402Z,0.00
2022-10-05T04:29:16.382Z,0.00
2022-10-05T04:30:16.479Z,0.00
2022-10-05T04:31:16.405Z,0.00
2022-10-05T04:32:16.342Z,0.00
2022-10-05T04:33:16.322Z,0.00
2022-10-05T04:34:16.472Z,0.00
2022-10-05T04:35:16.294Z,0.00
2022-10-05T04:36:16.311Z,0.00
2022-10-05T04:37:16.465Z,0.00
2022-10-05T04:38:16.263Z,0.00
2022-10-05T04:39:16.253Z,0.00
2022-10-05T04:40:16.272Z,0.00
2022-10-05T04:41:16.230Z,0.00
2022-10-05T04:42:16.230Z,0.00
2022-10-05T04:43:16.202Z,0.00
2022-10-05T04:44:16.297Z,0.00
2022-10-05T04:45:16.242Z,0.00
2022-10-05T04:46:16.243Z,0.00
2022-10-05T04:47:16.199Z,0.00
2022-10-05T04:48:16.190Z,0.00
2022-10-05T04:49:16.153Z,0.00
2022-10-05T04:50:16.161Z,0.00
2022-10-05T04:51:16.119Z,0.00
2022-10-05T04:52:16.132Z,0.00
2022-10-05T04:53:16.095Z,0.00
2022-10-05T04:54:16.141Z,0.00
2022-10-05T04:55:16.920Z,0.00
2022-10-05T04:56:16.166Z,0.00
2022-10-05T04:57:16.104Z,0.00
2022-10-05T04:58:16.091Z,0.00
2022-10-05T04:59:16.099Z,0.00
2022-10-05T05:00:16.140Z,0.00
2022-10-05T05:01:16.068Z,0.00
2022-10-05T05:02:16.037Z,0.00
2022-10-05T05:03:16.002Z,0.00
2022-10-05T05:04:16.109Z,0.00
2022-10-05T05:05:16.012Z,0.00
2022-10-05T05:06:17.745Z,0.00
2022-10-05T05:07:16.125Z,0.00
2022-10-05T05:08:15.951Z,0.00
2022-10-05T05:09:15.933Z,0.00
2022-10-05T05:10:15.912Z,0.00
2022-10-05T05:11:18.179Z,0.00
2022-10-05T05:12:15.880Z,0.00
2022-10-05T05:13:16.069Z,4.00
2022-10-05T05:14:15.963Z,4.00
2022-10-05T05:15:15.870Z,0.00
2022-10-05T05:16:15.876Z,4.00
2022-10-05T05:17:16.072Z,4.00
2022-10-05T05:18:15.820Z,8.00
2022-10-05T05:19:15.800Z,8.00
2022-10-05T05:20:15.801Z,12.00
2022-10-05T05:21:15.797Z,12.00
2022-10-05T05:22:15.781Z,16.00
2022-10-05T05:23:15.771Z,20.00
2022-10-05T05:24:15.801Z,20.00
2022-10-05T05:25:15.800Z,20.00
2022-10-05T05:26:15.805Z,28.00
2022-10-05T05:27:15.935Z,28.00
2022-10-05T05:28:15.820Z,36.00
2022-10-05T05:29:15.757Z,36.00
2022-10-05T05:30:15.746Z,40.00
2022-10-05T05:31:15.739Z,48.00
2022-10-05T05:32:15.681Z,48.00
2022-10-05T05:33:15.662Z,60.00
2022-10-05T05:34:15.731Z,68.00
2022-10-05T05:35:15.651Z,80.00
2022-10-05T05:36:19.504Z,92.00
2022-10-05T05:37:16.685Z,100.00
2022-10-05T05:38:15.681Z,104.00
2022-10-05T05:39:15.668Z,116.00
2022-10-05T05:40:15.670Z,124.00
2022-10-05T05:41:15.749Z,128.00
2022-10-05T05:42:15.639Z,140.00
2022-10-05T05:43:15.601Z,152.00
2022-10-05T05:44:15.596Z,160.00
2022-10-05T05:45:15.585Z,176.00
2022-10-05T05:46:15.574Z,180.00
2022-10-05T05:47:15.558Z,200.00
2022-10-05T05:48:15.520Z,216.00
2022-10-05T05:49:15.569Z,228.00
2022-10-05T05:50:15.595Z,240.00
2022-10-05T05:51:15.490Z,260.00
2022-10-05T05:52:15.520Z,280.00
2022-10-05T05:53:15.459Z,308.00
2022-10-05T05:54:15.459Z,344.00
2022-10-05T05:55:15.889Z,364.00
2022-10-05T05:56:15.891Z,400.00
2022-10-05T05:57:15.396Z,436.00
2022-10-05T05:58:15.380Z,484.00
2022-10-05T05:59:15.702Z,512.00
2022-10-05T06:00:15.438Z,548.00
2022-10-05T06:01:31.791Z,596.00
2022-10-05T06:02:16.583Z,652.00
2022-10-05T06:03:15.477Z,688.00
2022-10-05T06:04:15.328Z,704.00
2022-10-05T06:05:15.319Z,744.00
2022-10-05T06:06:15.297Z,756.00
2022-10-05T06:07:15.280Z,784.00
2022-10-05T06:08:15.279Z,812.00
2022-10-05T06:09:15.280Z,844.00
2022-10-05T06:10:15.282Z,864.00
2022-10-05T06:11:15.260Z,872.00
2022-10-05T06:12:15.281Z,936.00
2022-10-05T06:13:15.259Z,936.00
2022-10-05T06:14:15.231Z,968.00
2022-10-05T06:15:15.228Z,1044.00
2022-10-05T06:16:15.274Z,1112.00
2022-10-05T06:17:15.169Z,1180.00
2022-10-05T06:18:15.178Z,1220.00
2022-10-05T06:19:15.150Z,1272.00
2022-10-05T06:20:15.160Z,1312.00
2022-10-05T06:21:15.137Z,1332.00
2022-10-05T06:22:15.128Z,1372.00
2022-10-05T06:23:15.107Z,1376.00
2022-10-05T06:24:15.100Z,1440.00
2022-10-05T06:25:15.156Z,1516.00
2022-10-05T06:26:15.079Z,1560.00
2022-10-05T06:27:15.060Z,1576.00
2022-10-05T06:28:15.137Z,1568.00
2022-10-05T06:29:15.068Z,1384.00
2022-10-05T06:30:15.039Z,1156.00
2022-10-05T06:31:15.066Z,1120.00
2022-10-05T06:32:15.017Z,1160.00
2022-10-05T06:33:14.996Z,1248.00
2022-10-05T06:34:14.990Z,1336.00
2022-10-05T06:35:15.027Z,1412.00
2022-10-05T06:36:14.967Z,1460.00
2022-10-05T06:37:14.977Z,1564.00
2022-10-05T06:38:14.965Z,1660.00
2022-10-05T06:39:14.939Z,1748.00
2022-10-05T06:40:14.978Z,1736.00
2022-10-05T06:41:14.947Z,1816.00
2022-10-05T06:42:14.927Z,1892.00
2022-10-05T06:43:14.888Z,1848.00
2022-10-05T06:44:14.879Z,1836.00
2022-10-05T06:45:14.875Z,1848.00
2022-10-05T06:46:14.939Z,1916.00
2022-10-05T06:47:14.883Z,1932.00
2022-10-05T06:48:14.876Z,1932.00
2022-10-05T06:49:14.869Z,1936.00
2022-10-05T06:50:14.840Z,1912.00
2022-10-05T06:51:14.896Z,1916.00
2022-10-05T06:52:14.797Z,1876.00
2022-10-05T06:53:14.967Z,1804.00
2022-10-05T06:54:14.789Z,1844.00
2022-10-05T06:55:14.770Z,1964.00
2022-10-05T06:56:14.759Z,1972.00
2022-10-05T06:57:14.765Z,1988.00
2022-10-05T06:58:14.789Z,2100.00
2022-10-05T06:59:14.778Z,2216.00
2022-10-05T07:00:14.784Z,2204.00
2022-10-05T07:01:14.773Z,2220.00
2022-10-05T07:02:14.739Z,2368.00
2022-10-05T07:03:14.718Z,2456.00
2022-10-05T07:04:14.726Z,2400.00
2022-10-05T07:05:14.694Z,2272.00
2022-10-05T07:06:14.708Z,2288.00
2022-10-05T07:07:14.694Z,2336.00
2022-10-05T07:08:14.675Z,2364.00
2022-10-05T07:09:14.667Z,2360.00
2022-10-05T07:10:14.671Z,2484.00
2022-10-05T07:11:14.674Z,2564.00
2022-10-05T07:12:14.596Z,2652.00
2022-10-05T07:13:14.585Z,2644.00
2022-10-05T07:14:14.606Z,2640.00
2022-10-05T07:15:14.576Z,2708.00
2022-10-05T07:16:14.681Z,2708.00
2022-10-05T07:17:14.579Z,2584.00
2022-10-05T07:18:14.527Z,2628.00
2022-10-05T07:19:14.497Z,2656.00
2022-10-05T07:20:14.488Z,2620.00
2022-10-05T07:21:14.497Z,2668.00
2022-10-05T07:22:14.526Z,2760.00
2022-10-05T07:23:14.457Z,2716.00
2022-10-05T07:24:14.477Z,2760.00
2022-10-05T07:25:14.498Z,2788.00
2022-10-05T07:26:14.458Z,2668.00
2022-10-05T07:27:14.447Z,2724.00
2022-10-05T07:28:14.493Z,2756.00
2022-10-05T07:29:14.385Z,2728.00
2022-10-05T07:30:14.389Z,2672.00
2022-10-05T07:31:14.461Z,2552.00
2022-10-05T07:32:15.138Z,2268.00
2022-10-05T07:33:14.375Z,2104.00
2022-10-05T07:34:14.391Z,1968.00
2022-10-05T07:35:14.335Z,1880.00
2022-10-05T07:36:14.336Z,1812.00
2022-10-05T07:37:14.380Z,1740.00
2022-10-05T07:38:14.338Z,1756.00
2022-10-05T07:39:14.295Z,1848.00
2022-10-05T07:40:14.296Z,1796.00
2022-10-05T07:41:14.285Z,1772.00
2022-10-05T07:42:14.257Z,1732.00
2022-10-05T07:43:14.317Z,1736.00
2022-10-05T07:44:14.273Z,1852.00
2022-10-05T07:45:14.305Z,1852.00
2022-10-05T07:46:14.292Z,1848.00
2022-10-05T07:47:14.272Z,1900.00
2022-10-05T07:48:14.195Z,1948.00
2022-10-05T07:49:14.204Z,2044.00
2022-10-05T07:50:14.316Z,2080.00
2022-10-05T07:51:14.176Z,2060.00
2022-10-05T07:52:14.149Z,1880.00
2022-10-05T07:53:14.177Z,1780.00
2022-10-05T07:54:14.138Z,1760.00
2022-10-05T07:55:14.115Z,1720.00
2022-10-05T07:56:14.105Z,1720.00
2022-10-05T07:57:14.091Z,1744.00
2022-10-05T07:58:14.074Z,1720.00
2022-10-05T07:59:14.081Z,1732.00
2022-10-05T08:00:14.127Z,1716.00
2022-10-05T08:01:14.527Z,1808.00
2022-10-05T08:02:14.198Z,1860.00
2022-10-05T08:03:14.105Z,1868.00
2022-10-05T08:04:14.016Z,1736.00
2022-10-05T08:05:14.045Z,1812.00
2022-10-05T08:06:14.004Z,1912.00
2022-10-05T08:07:14.072Z,1900.00
2022-10-05T08:08:16.689Z,1916.00
2022-10-05T08:09:13.970Z,1836.00
2022-10-05T08:10:13.984Z,1820.00
2022-10-05T08:11:13.954Z,1836.00
2022-10-05T08:12:14.675Z,1896.00
2022-10-05T08:13:13.929Z,2112.00
2022-10-05T08:14:13.904Z,2388.00
2022-10-05T08:15:13.904Z,2568.00
2022-10-05T08:16:13.992Z,2600.00
2022-10-05T08:17:13.884Z,2800.00
2022-10-05T08:18:13.859Z,2868.00
2022-10-05T08:19:13.861Z,2876.00
2022-10-05T08:20:13.910Z,2940.00
2022-10-05T08:21:13.845Z,3032.00
2022-10-05T08:22:13.847Z,3164.00
2022-10-05T08:23:13.877Z,3156.00
2022-10-05T08:24:13.843Z,3112.00
2022-10-05T08:25:13.785Z,3080.00
2022-10-05T08:26:13.955Z,3104.00
2022-10-05T08:27:13.772Z,3104.00
2022-10-05T08:28:13.841Z,3176.00
2022-10-05T08:29:14.168Z,3136.00
2022-10-05T08:30:13.823Z,3132.00
2022-10-05T08:31:13.794Z,3160.00
2022-10-05T08:32:13.796Z,3124.00
2022-10-05T08:33:13.697Z,2944.00
2022-10-05T08:34:13.685Z,2912.00
2022-10-05T08:35:13.678Z,2948.00
2022-10-05T08:36:13.667Z,2956.00
2022-10-05T08:37:13.686Z,3112.00
2022-10-05T08:38:13.669Z,3264.00
2022-10-05T08:39:13.638Z,3340.00
2022-10-05T08:40:13.653Z,3340.00
2022-10-05T08:41:13.657Z,3460.00
2022-10-05T08:42:13.615Z,3676.00
2022-10-05T08:43:13.625Z,3708.00
2022-10-05T08:44:13.586Z,3748.00
2022-10-05T08:45:13.575Z,3804.00
2022-10-05T08:46:13.646Z,3864.00
2022-10-05T08:47:13.593Z,3724.00
2022-10-05T08:48:13.534Z,3824.00
2022-10-05T08:49:13.552Z,3956.00
2022-10-05T08:50:13.536Z,4020.00
2022-10-05T08:51:13.503Z,3976.00
2022-10-05T08:52:13.525Z,4124.00
2022-10-05T08:53:13.505Z,3956.00
2022-10-05T08:54:13.475Z,3856.00
2022-10-05T08:55:13.478Z,3796.00
2022-10-05T08:56:17.628Z,3888.00
2022-10-05T08:57:14.478Z,3932.00
2022-10-05T08:58:13.423Z,3848.00
2022-10-05T08:59:13.414Z,3904.00
2022-10-05T09:00:13.412Z,3988.00
2022-10-05T09:01:13.456Z,4084.00
2022-10-05T09:02:13.486Z,4160.00
2022-10-05T09:03:13.383Z,4228.00
2022-10-05T09:04:13.374Z,4188.00
2022-10-05T09:05:13.384Z,4140.00
2022-10-05T09:06:13.402Z,4108.00
2022-10-05T09:07:13.395Z,4152.00
2022-10-05T09:08:13.336Z,4236.00
2022-10-05T09:09:13.315Z,4340.00
2022-10-05T09:10:13.296Z,4364.00
2022-10-05T09:11:13.301Z,4452.00
2022-10-05T09:12:13.549Z,4436.00
2022-10-05T09:13:13.264Z,4532.00
2022-10-05T09:14:13.255Z,4576.00
2022-10-05T09:15:25.396Z,4584.00
2022-10-05T09:16:14.294Z,4768.00
2022-10-05T09:17:13.237Z,4688.00
2022-10-05T09:18:13.220Z,4676.00
2022-10-05T09:19:13.199Z,4772.00
2022-10-05T09:20:13.185Z,4808.00
2022-10-05T09:21:13.196Z,4712.00
2022-10-05T09:22:13.177Z,4700.00
2022-10-05T09:23:13.235Z,4688.00
2022-10-05T09:24:13.169Z,4636.00
2022-10-05T09:25:13.144Z,4644.00
2022-10-05T09:26:13.186Z,4724.00
2022-10-05T09:27:13.159Z,4744.00
2022-10-05T09:28:13.135Z,4940.00
2022-10-05T09:29:13.147Z,4948.00
2022-10-05T09:30:13.075Z,4816.00
2022-10-05T09:31:13.153Z,4796.00
2022-10-05T09:32:16.441Z,4780.00
2022-10-05T09:33:13.046Z,5040.00
2022-10-05T09:34:13.046Z,5176.00
2022-10-05T09:35:13.086Z,5100.00
2022-10-05T09:36:13.015Z,4984.00
2022-10-05T09:37:13.046Z,5092.00
2022-10-05T09:38:12.985Z,5188.00
2022-10-05T09:39:12.976Z,5144.00
2022-10-05T09:40:12.965Z,5192.00
2022-10-05T09:41:12.986Z,5152.00
2022-10-05T09:42:12.975Z,5200.00
2022-10-05T09:43:12.936Z,5460.00
2022-10-05T09:44:12.938Z,5504.00
2022-10-05T09:45:15.541Z,5600.00
2022-10-05T09:46:12.944Z,5676.00
2022-10-05T09:47:12.934Z,5680.00
2022-10-05T09:48:12.888Z,5724.00
2022-10-05T09:49:12.907Z,5720.00
2022-10-05T09:50:12.866Z,5620.00
2022-10-05T09:51:12.858Z,5828.00
2022-10-05T09:52:17.952Z,5976.00
2022-10-05T09:53:13.876Z,5852.00
2022-10-05T09:54:12.827Z,5732.00
2022-10-05T09:55:12.817Z,5684.00
2022-10-05T09:56:12.818Z,5652.00
2022-10-05T09:57:12.809Z,5608.00
2022-10-05T09:58:12.800Z,5680.00
2022-10-05T09:59:12.776Z,5900.00
2022-10-05T10:00:12.756Z,6148.00
2022-10-05T10:01:29.284Z,6220.00
2022-10-05T10:02:13.920Z,6116.00
2022-10-05T10:03:12.831Z,6052.00
2022-10-05T10:04:12.705Z,5976.00
2022-10-05T10:05:12.717Z,6072.00
2022-10-05T10:06:12.689Z,6152.00
2022-10-05T10:07:12.677Z,6100.00
2022-10-05T10:08:12.672Z,6060.00
2022-10-05T10:09:12.686Z,6152.00
2022-10-05T10:10:12.646Z,6336.00
2022-10-05T10:11:12.687Z,6308.00
2022-10-05T10:12:12.797Z,6408.00
2022-10-05T10:13:12.639Z,6380.00
2022-10-05T10:14:12.600Z,6348.00
2022-10-05T10:15:12.588Z,6440.00
2022-10-05T10:16:12.682Z,6404.00
2022-10-05T10:17:12.598Z,6308.00
2022-10-05T10:18:12.829Z,6212.00
2022-10-05T10:19:12.581Z,6240.00
2022-10-05T10:20:12.551Z,6548.00
2022-10-05T10:21:12.553Z,6676.00
2022-10-05T10:22:12.563Z,6724.00
2022-10-05T10:23:12.527Z,6608.00
2022-10-05T10:24:12.497Z,6592.00
2022-10-05T10:25:12.533Z,6584.00
2022-10-05T10:26:12.483Z,6512.00
2022-10-05T10:27:12.494Z,6508.00
2022-10-05T10:28:12.494Z,6604.00
2022-10-05T10:29:12.479Z,6808.00
2022-10-05T10:30:12.427Z,7056.00
2022-10-05T10:31:12.486Z,7064.00
2022-10-05T10:32:12.439Z,7088.00
2022-10-05T10:33:12.418Z,6936.00
2022-10-05T10:34:12.386Z,6700.00
2022-10-05T10:35:12.421Z,6660.00
2022-10-05T10:36:12.398Z,6776.00
2022-10-05T10:37:12.424Z,6912.00
2022-10-05T10:38:12.379Z,7064.00
2022-10-05T10:39:12.379Z,7044.00
2022-10-05T10:40:12.340Z,6872.00
2022-10-05T10:41:12.337Z,6648.00
2022-10-05T10:42:12.338Z,6708.00
2022-10-05T10:43:12.294Z,6880.00
2022-10-05T10:44:12.278Z,6892.00
2022-10-05T10:45:12.281Z,7048.00
2022-10-05T10:46:12.311Z,7008.00
2022-10-05T10:47:12.293Z,6964.00
2022-10-05T10:48:12.296Z,6780.00
2022-10-05T10:49:12.243Z,6544.00
2022-10-05T10:50:12.208Z,6584.00
2022-10-05T10:51:12.208Z,6656.00
2022-10-05T10:52:12.220Z,6660.00
2022-10-05T10:53:12.179Z,6732.00
2022-10-05T10:54:12.162Z,6768.00
2022-10-05T10:55:12.162Z,6832.00
2022-10-05T10:56:12.167Z,7120.00
2022-10-05T10:57:12.161Z,7188.00
2022-10-05T10:58:15.911Z,7288.00
2022-10-05T10:59:12.169Z,7272.00
2022-10-05T11:00:12.101Z,7316.00
2022-10-05T11:01:12.097Z,7184.00
2022-10-05T11:02:12.163Z,7324.00
2022-10-05T11:03:12.124Z,7560.00
2022-10-05T11:04:12.136Z,6992.00
2022-10-05T11:05:12.090Z,6736.00
2022-10-05T11:06:12.055Z,6868.00
2022-10-05T11:07:12.067Z,6888.00
2022-10-05T11:08:12.009Z,6932.00
2022-10-05T11:09:12.001Z,7040.00
2022-10-05T11:10:11.987Z,7080.00
2022-10-05T11:11:11.987Z,6904.00
2022-10-05T11:12:12.003Z,6848.00
2022-10-05T11:13:11.961Z,6920.00
2022-10-05T11:14:11.941Z,6848.00
2022-10-05T11:15:11.976Z,7164.00
2022-10-05T11:16:13.488Z,7064.00
2022-10-05T11:17:12.952Z,6988.00
2022-10-05T11:18:11.901Z,7120.00
2022-10-05T11:19:11.891Z,7240.00
2022-10-05T11:20:11.889Z,7188.00
2022-10-05T11:21:11.907Z,7432.00
2022-10-05T11:22:11.860Z,7264.00
2022-10-05T11:23:11.870Z,7188.00
2022-10-05T11:24:11.831Z,6972.00
2022-10-05T11:25:11.837Z,7024.00
2022-10-05T11:26:11.811Z,7104.00
2022-10-05T11:27:11.862Z,6988.00
2022-10-05T11:28:11.860Z,7172.00
2022-10-05T11:29:11.804Z,7176.00
2022-10-05T11:30:11.771Z,7124.00
2022-10-05T11:31:11.815Z,7384.00
2022-10-05T11:32:11.752Z,7308.00
2022-10-05T11:33:11.751Z,7104.00
2022-10-05T11:34:11.743Z,7052.00
2022-10-05T11:35:11.730Z,7008.00
2022-10-05T11:36:11.731Z,7528.00
2022-10-05T11:37:11.728Z,7616.00
2022-10-05T11:38:11.692Z,7340.00
2022-10-05T11:39:11.693Z,7240.00
2022-10-05T11:40:11.663Z,7256.00
2022-10-05T11:41:11.672Z,7752.00
2022-10-05T11:42:11.665Z,7644.00
2022-10-05T11:43:11.662Z,7360.00
2022-10-05T11:44:11.627Z,7536.00
2022-10-05T11:45:11.612Z,7028.00
2022-10-05T11:46:11.622Z,7068.00
2022-10-05T11:47:11.598Z,6612.00
2022-10-05T11:48:11.606Z,7732.00
2022-10-05T11:49:11.573Z,6636.00
2022-10-05T11:50:11.562Z,6420.00
2022-10-05T11:51:11.543Z,4512.00
2022-10-05T11:52:11.544Z,5432.00
2022-10-05T11:53:11.546Z,4980.00
2022-10-05T11:54:11.543Z,4380.00
2022-10-05T11:55:12.330Z,4468.00
2022-10-05T11:56:11.507Z,4184.00
2022-10-05T11:57:11.484Z,4220.00
2022-10-05T11:58:11.486Z,4132.00
2022-10-05T11:59:11.484Z,3016.00
2022-10-05T12:00:11.464Z,4132.00
2022-10-05T12:01:11.456Z,4876.00
2022-10-05T12:02:11.437Z,4736.00
2022-10-05T12:03:11.506Z,4116.00
2022-10-05T12:04:11.540Z,5568.00
2022-10-05T12:05:11.396Z,3480.00
2022-10-05T12:06:11.385Z,3500.00
2022-10-05T12:07:11.386Z,5508.00
2022-10-05T12:08:11.425Z,5244.00
2022-10-05T12:09:11.356Z,4996.00
2022-10-05T12:10:11.346Z,4548.00
2022-10-05T12:11:11.338Z,4600.00
2022-10-05T12:12:11.360Z,4624.00
2022-10-05T12:13:11.326Z,3888.00
2022-10-05T12:14:11.476Z,4364.00
2022-10-05T12:15:11.298Z,4132.00
2022-10-05T12:16:11.340Z,4216.00
2022-10-05T12:17:11.419Z,4308.00
2022-10-05T12:18:11.288Z,3192.00
2022-10-05T12:19:11.257Z,3012.00
2022-10-05T12:20:11.247Z,3956.00
2022-10-05T12:21:11.231Z,3196.00
2022-10-05T12:22:11.231Z,3888.00
2022-10-05T12:23:11.247Z,3968.00
2022-10-05T12:24:11.227Z,3788.00
2022-10-05T12:25:11.212Z,3884.00
2022-10-05T12:26:11.190Z,3932.00
2022-10-05T12:27:11.201Z,3344.00
2022-10-05T12:28:11.220Z,2672.00
2022-10-05T12:29:11.170Z,3804.00
2022-10-05T12:30:11.179Z,4012.00
2022-10-05T12:31:11.183Z,4060.00
2022-10-05T12:32:11.161Z,3900.00
2022-10-05T12:33:11.123Z,3932.00
2022-10-05T12:34:11.121Z,2912.00
2022-10-05T12:35:11.099Z,4088.00
2022-10-05T12:36:11.333Z,3700.00
2022-10-05T12:37:11.131Z,3716.00